sensor_id;sensor_type;location;lat;lon;timestamp;P1;durP1;ratioP1;P2;durP2;ratioP2
74624;SDS011;63131;52.298;8.056;2023-10-19T00:02:13;19.65;;;8.88;;
74624;SDS011;63131;52.298;8.056;2023-10-19T00:05:37;15.02;;;7.55;;
74624;SDS011;63131;52.298;8.056;2023-10-19T00:09:01;17.00;;;8.38;;
74624;SDS011;63131;52.298;8.056;2023-10-19T00:12:28;14.77;;;7.93;;
74624;SDS011;63131;52.298;8.056;2023-10-19T00:15:54;16.67;;;8.95;;
74624;SDS011;63131;52.298;8.056;2023-10-19T00:19:21;15.73;;;7.75;;
74624;SDS011;63131;52.298;8.056;2023-10-19T00:23:02;15.13;;;7.70;;
74624;SDS011;63131;52.298;8.056;2023-10-19T00:26:29;15.18;;;7.53;;
74624;SDS011;63131;52.298;8.056;2023-10-19T00:29:53;15.90;;;8.20;;
74624;SDS011;63131;52.298;8.056;2023-10-19T00:33:18;14.60;;;7.63;;
74624;SDS011;63131;52.298;8.056;2023-10-19T00:36:42;16.20;;;8.15;;
74624;SDS011;63131;52.298;8.056;2023-10-19T00:40:08;18.08;;;8.50;;
74624;SDS011;63131;52.298;8.056;2023-10-19T00:43:34;14.73;;;8.23;;
74624;SDS011;63131;52.298;8.056;2023-10-19T00:47:07;15.75;;;8.23;;
74624;SDS011;63131;52.298;8.056;2023-10-19T00:50:33;17.25;;;8.95;;
74624;SDS011;63131;52.298;8.056;2023-10-19T00:54:08;15.88;;;8.55;;
74624;SDS011;63131;52.298;8.056;2023-10-19T00:57:32;14.50;;;7.80;;
74624;SDS011;63131;52.298;8.056;2023-10-19T01:01:01;16.30;;;7.75;;
74624;SDS011;63131;52.298;8.056;2023-10-19T01:04:44;15.32;;;8.48;;
74624;SDS011;63131;52.298;8.056;2023-10-19T01:07:34;17.23;;;8.68;;
74624;SDS011;63131;52.298;8.056;2023-10-19T01:10:57;16.60;;;8.43;;
74624;SDS011;63131;52.298;8.056;2023-10-19T01:14:26;16.63;;;8.85;;
74624;SDS011;63131;52.298;8.056;2023-10-19T01:17:53;17.05;;;8.18;;
74624;SDS011;63131;52.298;8.056;2023-10-19T01:21:23;15.07;;;8.48;;
74624;SDS011;63131;52.298;8.056;2023-10-19T01:24:51;16.75;;;8.15;;
74624;SDS011;63131;52.298;8.056;2023-10-19T01:28:22;16.08;;;8.02;;
74624;SDS011;63131;52.298;8.056;2023-10-19T01:31:51;15.15;;;8.20;;
74624;SDS011;63131;52.298;8.056;2023-10-19T01:35:11;16.30;;;8.85;;
74624;SDS011;63131;52.298;8.056;2023-10-19T01:38:36;16.85;;;8.27;;
74624;SDS011;63131;52.298;8.056;2023-10-19T01:41:24;14.88;;;6.90;;
74624;SDS011;63131;52.298;8.056;2023-10-19T01:43:51;17.30;;;8.63;;
74624;SDS011;63131;52.298;8.056;2023-10-19T01:46:21;15.63;;;7.82;;
74624;SDS011;63131;52.298;8.056;2023-10-19T01:48:50;17.85;;;8.35;;
74624;SDS011;63131;52.298;8.056;2023-10-19T01:51:20;16.95;;;9.07;;
74624;SDS011;63131;52.298;8.056;2023-10-19T01:53:45;17.10;;;8.95;;
74624;SDS011;63131;52.298;8.056;2023-10-19T01:59:00;19.17;;;10.43;;
74624;SDS011;63131;52.298;8.056;2023-10-19T02:03:43;13.50;;;6.75;;
74624;SDS011;63131;52.298;8.056;2023-10-19T02:06:09;13.47;;;7.13;;
74624;SDS011;63131;52.298;8.056;2023-10-19T02:13:03;14.27;;;8.15;;
74624;SDS011;63131;52.298;8.056;2023-10-19T02:15:32;13.65;;;6.65;;
74624;SDS011;63131;52.298;8.056;2023-10-19T02:18:28;13.38;;;6.93;;
74624;SDS011;63131;52.298;8.056;2023-10-19T02:20:53;14.88;;;8.38;;
74624;SDS011;63131;52.298;8.056;2023-10-19T02:23:18;13.83;;;7.63;;
74624;SDS011;63131;52.298;8.056;2023-10-19T02:25:43;13.50;;;8.03;;
74624;SDS011;63131;52.298;8.056;2023-10-19T02:28:09;14.65;;;8.00;;
74624;SDS011;63131;52.298;8.056;2023-10-19T02:30:36;13.05;;;7.20;;
74624;SDS011;63131;52.298;8.056;2023-10-19T02:33:01;14.63;;;7.17;;
74624;SDS011;63131;52.298;8.056;2023-10-19T02:35:28;12.55;;;6.78;;
74624;SDS011;63131;52.298;8.056;2023-10-19T02:37:53;13.55;;;6.97;;
74624;SDS011;63131;52.298;8.056;2023-10-19T02:40:19;12.82;;;6.97;;
74624;SDS011;63131;52.298;8.056;2023-10-19T02:42:45;14.67;;;6.97;;
74624;SDS011;63131;52.298;8.056;2023-10-19T02:45:12;13.10;;;7.32;;
74624;SDS011;63131;52.298;8.056;2023-10-19T02:47:40;14.18;;;6.53;;
74624;SDS011;63131;52.298;8.056;2023-10-19T02:50:07;11.73;;;6.60;;
74624;SDS011;63131;52.298;8.056;2023-10-19T02:52:38;13.52;;;8.25;;
74624;SDS011;63131;52.298;8.056;2023-10-19T02:55:05;13.32;;;7.72;;
74624;SDS011;63131;52.298;8.056;2023-10-19T02:57:31;12.82;;;5.97;;
74624;SDS011;63131;52.298;8.056;2023-10-19T02:59:56;13.83;;;7.30;;
74624;SDS011;63131;52.298;8.056;2023-10-19T03:02:23;12.43;;;7.43;;
74624;SDS011;63131;52.298;8.056;2023-10-19T03:04:50;14.20;;;7.72;;
74624;SDS011;63131;52.298;8.056;2023-10-19T03:07:17;12.68;;;6.00;;
74624;SDS011;63131;52.298;8.056;2023-10-19T03:12:13;12.45;;;6.60;;
74624;SDS011;63131;52.298;8.056;2023-10-19T03:14:39;13.52;;;7.18;;
74624;SDS011;63131;52.298;8.056;2023-10-19T03:17:06;12.02;;;6.28;;
74624;SDS011;63131;52.298;8.056;2023-10-19T03:19:33;12.00;;;6.45;;
74624;SDS011;63131;52.298;8.056;2023-10-19T03:24:30;12.23;;;6.13;;
74624;SDS011;63131;52.298;8.056;2023-10-19T03:27:06;12.63;;;6.63;;
74624;SDS011;63131;52.298;8.056;2023-10-19T03:29:38;13.30;;;6.15;;
74624;SDS011;63131;52.298;8.056;2023-10-19T03:32:04;13.18;;;6.40;;
74624;SDS011;63131;52.298;8.056;2023-10-19T03:34:29;13.10;;;6.18;;
74624;SDS011;63131;52.298;8.056;2023-10-19T03:36:57;12.63;;;6.18;;
74624;SDS011;63131;52.298;8.056;2023-10-19T03:39:27;10.95;;;5.55;;
74624;SDS011;63131;52.298;8.056;2023-10-19T03:41:52;12.55;;;6.45;;
74624;SDS011;63131;52.298;8.056;2023-10-19T03:44:18;13.10;;;7.20;;
74624;SDS011;63131;52.298;8.056;2023-10-19T03:47:00;12.43;;;5.53;;
74624;SDS011;63131;52.298;8.056;2023-10-19T03:49:36;10.95;;;5.55;;
74624;SDS011;63131;52.298;8.056;2023-10-19T03:52:03;12.07;;;6.03;;
74624;SDS011;63131;52.298;8.056;2023-10-19T03:54:34;11.82;;;6.05;;
74624;SDS011;63131;52.298;8.056;2023-10-19T03:57:04;11.85;;;6.53;;
74624;SDS011;63131;52.298;8.056;2023-10-19T03:59:32;11.95;;;5.88;;
74624;SDS011;63131;52.298;8.056;2023-10-19T04:02:02;13.13;;;6.35;;
74624;SDS011;63131;52.298;8.056;2023-10-19T04:04:34;12.02;;;6.80;;
74624;SDS011;63131;52.298;8.056;2023-10-19T04:06:59;11.48;;;6.00;;
74624;SDS011;63131;52.298;8.056;2023-10-19T04:09:34;12.60;;;6.53;;
74624;SDS011;63131;52.298;8.056;2023-10-19T04:11:59;12.07;;;6.27;;
74624;SDS011;63131;52.298;8.056;2023-10-19T04:14:27;11.32;;;6.55;;
74624;SDS011;63131;52.298;8.056;2023-10-19T04:16:52;12.60;;;6.33;;
74624;SDS011;63131;52.298;8.056;2023-10-19T04:19:17;13.67;;;6.43;;
74624;SDS011;63131;52.298;8.056;2023-10-19T04:21:42;13.07;;;6.33;;
74624;SDS011;63131;52.298;8.056;2023-10-19T04:24:12;13.45;;;6.45;;
74624;SDS011;63131;52.298;8.056;2023-10-19T04:26:37;12.10;;;6.10;;
74624;SDS011;63131;52.298;8.056;2023-10-19T04:29:03;13.57;;;7.45;;
74624;SDS011;63131;52.298;8.056;2023-10-19T04:31:43;12.95;;;6.78;;
74624;SDS011;63131;52.298;8.056;2023-10-19T04:34:17;12.93;;;6.65;;
74624;SDS011;63131;52.298;8.056;2023-10-19T04:36:46;13.38;;;6.65;;
74624;SDS011;63131;52.298;8.056;2023-10-19T04:39:11;12.30;;;6.10;;
74624;SDS011;63131;52.298;8.056;2023-10-19T04:41:39;12.40;;;6.32;;
74624;SDS011;63131;52.298;8.056;2023-10-19T04:44:04;11.85;;;6.80;;
74624;SDS011;63131;52.298;8.056;2023-10-19T04:46:33;12.27;;;6.45;;
74624;SDS011;63131;52.298;8.056;2023-10-19T04:48:58;11.10;;;5.93;;
74624;SDS011;63131;52.298;8.056;2023-10-19T04:51:23;13.20;;;7.15;;
74624;SDS011;63131;52.298;8.056;2023-10-19T04:53:49;13.20;;;6.18;;
74624;SDS011;63131;52.298;8.056;2023-10-19T04:56:14;14.30;;;6.50;;
74624;SDS011;63131;52.298;8.056;2023-10-19T04:58:39;11.03;;;6.27;;
74624;SDS011;63131;52.298;8.056;2023-10-19T05:01:05;12.32;;;6.45;;
74624;SDS011;63131;52.298;8.056;2023-10-19T05:03:30;12.82;;;6.07;;
74624;SDS011;63131;52.298;8.056;2023-10-19T05:05:55;12.32;;;5.93;;
74624;SDS011;63131;52.298;8.056;2023-10-19T05:08:24;12.48;;;6.45;;
74624;SDS011;63131;52.298;8.056;2023-10-19T05:10:53;12.40;;;6.57;;
74624;SDS011;63131;52.298;8.056;2023-10-19T05:13:19;12.68;;;6.68;;
74624;SDS011;63131;52.298;8.056;2023-10-19T05:15:44;12.45;;;6.13;;
74624;SDS011;63131;52.298;8.056;2023-10-19T05:18:10;13.30;;;6.77;;
74624;SDS011;63131;52.298;8.056;2023-10-19T05:20:35;12.80;;;6.82;;
74624;SDS011;63131;52.298;8.056;2023-10-19T05:23:05;12.00;;;6.50;;
74624;SDS011;63131;52.298;8.056;2023-10-19T05:25:30;13.37;;;6.33;;
74624;SDS011;63131;52.298;8.056;2023-10-19T05:27:55;12.53;;;7.27;;
74624;SDS011;63131;52.298;8.056;2023-10-19T05:30:21;13.97;;;6.60;;
74624;SDS011;63131;52.298;8.056;2023-10-19T05:32:47;13.02;;;7.03;;
74624;SDS011;63131;52.298;8.056;2023-10-19T05:35:14;12.25;;;6.65;;
74624;SDS011;63131;52.298;8.056;2023-10-19T05:37:47;11.88;;;6.43;;
74624;SDS011;63131;52.298;8.056;2023-10-19T05:40:14;13.20;;;6.32;;
74624;SDS011;63131;52.298;8.056;2023-10-19T05:42:40;13.80;;;6.63;;
74624;SDS011;63131;52.298;8.056;2023-10-19T05:45:05;14.40;;;7.50;;
74624;SDS011;63131;52.298;8.056;2023-10-19T05:47:30;12.80;;;6.25;;
74624;SDS011;63131;52.298;8.056;2023-10-19T05:49:56;11.68;;;5.95;;
74624;SDS011;63131;52.298;8.056;2023-10-19T05:52:21;12.17;;;6.10;;
74624;SDS011;63131;52.298;8.056;2023-10-19T05:54:47;11.98;;;6.35;;
74624;SDS011;63131;52.298;8.056;2023-10-19T05:57:14;12.43;;;6.60;;
74624;SDS011;63131;52.298;8.056;2023-10-19T05:59:39;12.07;;;6.40;;
74624;SDS011;63131;52.298;8.056;2023-10-19T06:04:32;11.90;;;6.00;;
74624;SDS011;63131;52.298;8.056;2023-10-19T06:06:57;13.63;;;6.00;;
74624;SDS011;63131;52.298;8.056;2023-10-19T06:09:22;12.07;;;6.53;;
74624;SDS011;63131;52.298;8.056;2023-10-19T06:11:54;11.38;;;5.78;;
74624;SDS011;63131;52.298;8.056;2023-10-19T06:14:19;12.57;;;6.68;;
74624;SDS011;63131;52.298;8.056;2023-10-19T06:16:44;11.67;;;6.07;;
74624;SDS011;63131;52.298;8.056;2023-10-19T06:19:10;12.73;;;7.07;;
74624;SDS011;63131;52.298;8.056;2023-10-19T06:21:35;12.17;;;6.13;;
74624;SDS011;63131;52.298;8.056;2023-10-19T06:24:00;12.00;;;6.50;;
74624;SDS011;63131;52.298;8.056;2023-10-19T06:26:25;11.45;;;6.35;;
74624;SDS011;63131;52.298;8.056;2023-10-19T06:28:51;13.00;;;6.43;;
74624;SDS011;63131;52.298;8.056;2023-10-19T06:31:21;11.77;;;6.03;;
74624;SDS011;63131;52.298;8.056;2023-10-19T06:36:12;12.43;;;5.70;;
74624;SDS011;63131;52.298;8.056;2023-10-19T06:41:12;9.50;;;5.13;;
74624;SDS011;63131;52.298;8.056;2023-10-19T06:43:40;12.02;;;6.18;;
74624;SDS011;63131;52.298;8.056;2023-10-19T06:46:06;12.15;;;5.70;;
74624;SDS011;63131;52.298;8.056;2023-10-19T06:48:31;11.48;;;5.80;;
74624;SDS011;63131;52.298;8.056;2023-10-19T06:50:57;12.13;;;6.97;;
74624;SDS011;63131;52.298;8.056;2023-10-19T06:53:22;12.38;;;6.82;;
74624;SDS011;63131;52.298;8.056;2023-10-19T06:55:47;11.50;;;5.97;;
74624;SDS011;63131;52.298;8.056;2023-10-19T07:00:39;10.77;;;5.97;;
74624;SDS011;63131;52.298;8.056;2023-10-19T07:03:08;12.80;;;6.20;;
74624;SDS011;63131;52.298;8.056;2023-10-19T07:05:33;11.40;;;5.85;;
74624;SDS011;63131;52.298;8.056;2023-10-19T07:10:24;11.32;;;5.32;;
74624;SDS011;63131;52.298;8.056;2023-10-19T07:12:51;11.00;;;6.20;;
74624;SDS011;63131;52.298;8.056;2023-10-19T07:15:16;11.98;;;6.45;;
74624;SDS011;63131;52.298;8.056;2023-10-19T07:17:47;12.18;;;6.57;;
74624;SDS011;63131;52.298;8.056;2023-10-19T07:22:56;11.15;;;5.88;;
74624;SDS011;63131;52.298;8.056;2023-10-19T07:25:22;11.45;;;5.88;;
74624;SDS011;63131;52.298;8.056;2023-10-19T07:27:48;11.10;;;6.20;;
74624;SDS011;63131;52.298;8.056;2023-10-19T07:30:14;12.27;;;6.63;;
74624;SDS011;63131;52.298;8.056;2023-10-19T07:32:41;11.82;;;6.70;;
74624;SDS011;63131;52.298;8.056;2023-10-19T07:35:06;12.10;;;6.40;;
74624;SDS011;63131;52.298;8.056;2023-10-19T07:37:32;12.02;;;7.00;;
74624;SDS011;63131;52.298;8.056;2023-10-19T07:39:57;12.93;;;7.43;;
74624;SDS011;63131;52.298;8.056;2023-10-19T07:42:22;12.53;;;6.93;;
74624;SDS011;63131;52.298;8.056;2023-10-19T07:44:48;11.68;;;6.38;;
74624;SDS011;63131;52.298;8.056;2023-10-19T07:47:14;13.30;;;7.53;;
74624;SDS011;63131;52.298;8.056;2023-10-19T07:49:39;11.47;;;6.73;;
74624;SDS011;63131;52.298;8.056;2023-10-19T07:52:05;13.13;;;7.33;;
74624;SDS011;63131;52.298;8.056;2023-10-19T07:54:31;11.93;;;7.13;;
74624;SDS011;63131;52.298;8.056;2023-10-19T07:56:57;12.50;;;6.90;;
74624;SDS011;63131;52.298;8.056;2023-10-19T07:59:22;12.43;;;6.40;;
74624;SDS011;63131;52.298;8.056;2023-10-19T08:01:47;13.97;;;6.83;;
74624;SDS011;63131;52.298;8.056;2023-10-19T08:04:13;13.33;;;6.70;;
74624;SDS011;63131;52.298;8.056;2023-10-19T08:06:38;13.50;;;6.63;;
74624;SDS011;63131;52.298;8.056;2023-10-19T08:09:03;12.37;;;6.73;;
74624;SDS011;63131;52.298;8.056;2023-10-19T08:11:30;14.27;;;7.03;;
74624;SDS011;63131;52.298;8.056;2023-10-19T08:13:56;13.48;;;6.72;;
74624;SDS011;63131;52.298;8.056;2023-10-19T08:16:21;13.13;;;7.43;;
74624;SDS011;63131;52.298;8.056;2023-10-19T08:18:47;12.55;;;7.00;;
74624;SDS011;63131;52.298;8.056;2023-10-19T08:21:13;13.85;;;7.03;;
74624;SDS011;63131;52.298;8.056;2023-10-19T08:23:39;13.60;;;7.00;;
74624;SDS011;63131;52.298;8.056;2023-10-19T08:26:05;14.05;;;7.60;;
74624;SDS011;63131;52.298;8.056;2023-10-19T08:28:31;11.88;;;6.22;;
74624;SDS011;63131;52.298;8.056;2023-10-19T08:30:57;14.15;;;7.25;;
74624;SDS011;63131;52.298;8.056;2023-10-19T08:33:25;14.10;;;7.90;;
74624;SDS011;63131;52.298;8.056;2023-10-19T08:35:51;13.40;;;7.78;;
74624;SDS011;63131;52.298;8.056;2023-10-19T08:38:17;11.60;;;7.10;;
74624;SDS011;63131;52.298;8.056;2023-10-19T08:43:07;14.07;;;7.43;;
74624;SDS011;63131;52.298;8.056;2023-10-19T08:45:38;14.13;;;7.50;;
74624;SDS011;63131;52.298;8.056;2023-10-19T08:50:30;12.20;;;6.93;;
74624;SDS011;63131;52.298;8.056;2023-10-19T08:55:20;12.77;;;6.38;;
74624;SDS011;63131;52.298;8.056;2023-10-19T09:00:11;12.63;;;6.78;;
74624;SDS011;63131;52.298;8.056;2023-10-19T09:02:36;12.68;;;7.43;;
74624;SDS011;63131;52.298;8.056;2023-10-19T09:07:27;13.87;;;7.80;;
74624;SDS011;63131;52.298;8.056;2023-10-19T09:09:56;14.00;;;7.20;;
74624;SDS011;63131;52.298;8.056;2023-10-19T09:12:22;12.27;;;6.88;;
74624;SDS011;63131;52.298;8.056;2023-10-19T09:17:12;11.90;;;7.23;;
74624;SDS011;63131;52.298;8.056;2023-10-19T09:22:03;14.53;;;6.67;;
74624;SDS011;63131;52.298;8.056;2023-10-19T09:24:55;13.07;;;7.20;;
74624;SDS011;63131;52.298;8.056;2023-10-19T09:29:46;13.00;;;7.70;;
74624;SDS011;63131;52.298;8.056;2023-10-19T09:32:15;12.80;;;6.97;;
74624;SDS011;63131;52.298;8.056;2023-10-19T09:34:40;14.07;;;8.43;;
74624;SDS011;63131;52.298;8.056;2023-10-19T09:37:09;12.93;;;7.75;;
74624;SDS011;63131;52.298;8.056;2023-10-19T09:42:05;13.90;;;7.32;;
74624;SDS011;63131;52.298;8.056;2023-10-19T09:44:34;14.98;;;7.97;;
74624;SDS011;63131;52.298;8.056;2023-10-19T09:47:05;13.60;;;8.13;;
74624;SDS011;63131;52.298;8.056;2023-10-19T09:49:35;12.70;;;7.93;;
74624;SDS011;63131;52.298;8.056;2023-10-19T09:52:00;12.40;;;7.15;;
74624;SDS011;63131;52.298;8.056;2023-10-19T09:56:52;12.80;;;6.78;;
74624;SDS011;63131;52.298;8.056;2023-10-19T09:59:23;12.10;;;6.57;;
74624;SDS011;63131;52.298;8.056;2023-10-19T10:04:32;12.65;;;7.03;;
74624;SDS011;63131;52.298;8.056;2023-10-19T10:06:58;12.70;;;7.65;;
74624;SDS011;63131;52.298;8.056;2023-10-19T10:09:25;12.80;;;7.93;;
74624;SDS011;63131;52.298;8.056;2023-10-19T10:11:54;13.55;;;6.70;;
74624;SDS011;63131;52.298;8.056;2023-10-19T10:14:23;13.70;;;7.50;;
74624;SDS011;63131;52.298;8.056;2023-10-19T10:17:01;12.02;;;6.22;;
74624;SDS011;63131;52.298;8.056;2023-10-19T10:19:26;12.70;;;7.45;;
74624;SDS011;63131;52.298;8.056;2023-10-19T10:26:57;11.82;;;7.70;;
74624;SDS011;63131;52.298;8.056;2023-10-19T10:29:23;12.90;;;7.88;;
74624;SDS011;63131;52.298;8.056;2023-10-19T10:31:49;13.32;;;7.45;;
74624;SDS011;63131;52.298;8.056;2023-10-19T10:39:30;14.00;;;7.40;;
74624;SDS011;63131;52.298;8.056;2023-10-19T10:44:34;11.95;;;7.03;;
74624;SDS011;63131;52.298;8.056;2023-10-19T10:47:00;14.07;;;8.02;;
74624;SDS011;63131;52.298;8.056;2023-10-19T10:51:50;13.18;;;7.63;;
74624;SDS011;63131;52.298;8.056;2023-10-19T10:54:20;15.20;;;8.00;;
74624;SDS011;63131;52.298;8.056;2023-10-19T10:56:46;14.32;;;7.97;;
74624;SDS011;63131;52.298;8.056;2023-10-19T10:59:14;12.63;;;7.43;;
74624;SDS011;63131;52.298;8.056;2023-10-19T11:01:39;14.25;;;9.10;;
74624;SDS011;63131;52.298;8.056;2023-10-19T11:04:10;14.40;;;9.02;;
74624;SDS011;63131;52.298;8.056;2023-10-19T11:06:51;15.15;;;8.10;;
74624;SDS011;63131;52.298;8.056;2023-10-19T11:09:20;14.43;;;8.60;;
74624;SDS011;63131;52.298;8.056;2023-10-19T11:11:46;12.10;;;7.15;;
74624;SDS011;63131;52.298;8.056;2023-10-19T11:14:12;13.02;;;8.27;;
74624;SDS011;63131;52.298;8.056;2023-10-19T11:16:37;13.88;;;7.65;;
74624;SDS011;63131;52.298;8.056;2023-10-19T11:19:04;14.27;;;8.88;;
74624;SDS011;63131;52.298;8.056;2023-10-19T11:21:31;12.65;;;8.32;;
74624;SDS011;63131;52.298;8.056;2023-10-19T11:23:59;12.77;;;7.70;;
74624;SDS011;63131;52.298;8.056;2023-10-19T11:26:24;14.02;;;8.65;;
74624;SDS011;63131;52.298;8.056;2023-10-19T11:29:00;13.43;;;7.55;;
74624;SDS011;63131;52.298;8.056;2023-10-19T11:31:26;14.80;;;8.52;;
74624;SDS011;63131;52.298;8.056;2023-10-19T11:33:52;14.45;;;8.68;;
74624;SDS011;63131;52.298;8.056;2023-10-19T11:36:18;14.35;;;8.45;;
74624;SDS011;63131;52.298;8.056;2023-10-19T11:38:44;14.35;;;7.72;;
74624;SDS011;63131;52.298;8.056;2023-10-19T11:41:10;12.65;;;7.65;;
74624;SDS011;63131;52.298;8.056;2023-10-19T11:43:38;12.85;;;8.15;;
74624;SDS011;63131;52.298;8.056;2023-10-19T11:46:03;12.60;;;7.63;;
74624;SDS011;63131;52.298;8.056;2023-10-19T11:48:34;13.38;;;8.32;;
74624;SDS011;63131;52.298;8.056;2023-10-19T11:51:00;12.68;;;8.27;;
74624;SDS011;63131;52.298;8.056;2023-10-19T11:53:29;13.05;;;8.80;;
74624;SDS011;63131;52.298;8.056;2023-10-19T11:55:58;13.75;;;8.15;;
74624;SDS011;63131;52.298;8.056;2023-10-19T11:58:23;14.50;;;8.90;;
74624;SDS011;63131;52.298;8.056;2023-10-19T12:03:13;12.40;;;8.13;;
74624;SDS011;63131;52.298;8.056;2023-10-19T12:08:04;13.50;;;8.80;;
74624;SDS011;63131;52.298;8.056;2023-10-19T12:10:29;13.32;;;7.45;;
74624;SDS011;63131;52.298;8.056;2023-10-19T12:13:00;13.02;;;7.95;;
74624;SDS011;63131;52.298;8.056;2023-10-19T12:15:26;13.55;;;8.65;;
74624;SDS011;63131;52.298;8.056;2023-10-19T12:17:52;12.80;;;7.45;;
74624;SDS011;63131;52.298;8.056;2023-10-19T12:20:19;15.13;;;7.90;;
74624;SDS011;63131;52.298;8.056;2023-10-19T12:22:46;12.48;;;7.05;;
74624;SDS011;63131;52.298;8.056;2023-10-19T12:25:12;12.60;;;7.82;;
74624;SDS011;63131;52.298;8.056;2023-10-19T12:27:38;13.32;;;8.40;;
74624;SDS011;63131;52.298;8.056;2023-10-19T12:30:03;13.90;;;8.73;;
74624;SDS011;63131;52.298;8.056;2023-10-19T12:32:38;13.70;;;8.05;;
74624;SDS011;63131;52.298;8.056;2023-10-19T12:35:03;12.97;;;7.77;;
74624;SDS011;63131;52.298;8.056;2023-10-19T12:37:36;13.77;;;7.88;;
74624;SDS011;63131;52.298;8.056;2023-10-19T12:40:06;13.15;;;8.30;;
74624;SDS011;63131;52.298;8.056;2023-10-19T12:45:17;13.05;;;8.32;;
74624;SDS011;63131;52.298;8.056;2023-10-19T12:47:44;12.65;;;8.13;;
74624;SDS011;63131;52.298;8.056;2023-10-19T12:50:09;13.43;;;8.03;;
74624;SDS011;63131;52.298;8.056;2023-10-19T12:52:34;12.20;;;7.10;;
74624;SDS011;63131;52.298;8.056;2023-10-19T12:55:02;12.20;;;8.10;;
74624;SDS011;63131;52.298;8.056;2023-10-19T12:57:29;11.85;;;7.03;;
74624;SDS011;63131;52.298;8.056;2023-10-19T12:59:54;13.07;;;8.27;;
74624;SDS011;63131;52.298;8.056;2023-10-19T13:02:19;12.07;;;7.77;;
74624;SDS011;63131;52.298;8.056;2023-10-19T13:04:45;14.48;;;8.63;;
74624;SDS011;63131;52.298;8.056;2023-10-19T13:07:11;12.25;;;7.63;;
74624;SDS011;63131;52.298;8.056;2023-10-19T13:09:37;18.42;;;8.40;;
74624;SDS011;63131;52.298;8.056;2023-10-19T13:12:03;13.55;;;8.00;;
74624;SDS011;63131;52.298;8.056;2023-10-19T13:14:32;12.15;;;7.60;;
74624;SDS011;63131;52.298;8.056;2023-10-19T13:16:59;14.80;;;8.55;;
74624;SDS011;63131;52.298;8.056;2023-10-19T13:19:24;14.30;;;7.90;;
74624;SDS011;63131;52.298;8.056;2023-10-19T13:21:50;13.02;;;7.90;;
74624;SDS011;63131;52.298;8.056;2023-10-19T13:24:16;12.45;;;8.00;;
74624;SDS011;63131;52.298;8.056;2023-10-19T13:29:10;11.75;;;7.28;;
74624;SDS011;63131;52.298;8.056;2023-10-19T13:31:35;12.30;;;7.20;;
74624;SDS011;63131;52.298;8.056;2023-10-19T13:34:01;13.40;;;8.60;;
74624;SDS011;63131;52.298;8.056;2023-10-19T13:36:28;12.70;;;8.77;;
74624;SDS011;63131;52.298;8.056;2023-10-19T13:38:53;14.38;;;8.80;;
74624;SDS011;63131;52.298;8.056;2023-10-19T13:41:19;13.05;;;8.07;;
74624;SDS011;63131;52.298;8.056;2023-10-19T13:43:45;15.45;;;9.68;;
74624;SDS011;63131;52.298;8.056;2023-10-19T13:46:12;13.98;;;9.02;;
74624;SDS011;63131;52.298;8.056;2023-10-19T13:48:37;15.70;;;10.00;;
74624;SDS011;63131;52.298;8.056;2023-10-19T13:51:04;14.00;;;9.00;;
74624;SDS011;63131;52.298;8.056;2023-10-19T13:53:40;15.55;;;9.55;;
74624;SDS011;63131;52.298;8.056;2023-10-19T13:56:09;15.18;;;9.95;;
74624;SDS011;63131;52.298;8.056;2023-10-19T13:58:34;14.98;;;9.00;;
74624;SDS011;63131;52.298;8.056;2023-10-19T14:01:00;15.25;;;9.77;;
74624;SDS011;63131;52.298;8.056;2023-10-19T14:03:25;14.50;;;8.85;;
74624;SDS011;63131;52.298;8.056;2023-10-19T14:05:50;14.93;;;8.75;;
74624;SDS011;63131;52.298;8.056;2023-10-19T14:08:16;15.15;;;8.88;;
74624;SDS011;63131;52.298;8.056;2023-10-19T14:10:42;13.98;;;8.35;;
74624;SDS011;63131;52.298;8.056;2023-10-19T14:13:07;13.90;;;9.07;;
74624;SDS011;63131;52.298;8.056;2023-10-19T14:17:59;14.63;;;9.07;;
74624;SDS011;63131;52.298;8.056;2023-10-19T14:20:25;13.95;;;7.90;;
74624;SDS011;63131;52.298;8.056;2023-10-19T14:22:51;14.00;;;8.88;;
74624;SDS011;63131;52.298;8.056;2023-10-19T14:25:18;15.05;;;8.98;;
74624;SDS011;63131;52.298;8.056;2023-10-19T14:27:46;13.25;;;8.48;;
74624;SDS011;63131;52.298;8.056;2023-10-19T14:30:13;15.00;;;9.48;;
74624;SDS011;63131;52.298;8.056;2023-10-19T14:32:42;20.13;;;10.38;;
74624;SDS011;63131;52.298;8.056;2023-10-19T14:35:11;14.68;;;9.82;;
74624;SDS011;63131;52.298;8.056;2023-10-19T14:37:38;14.90;;;9.77;;
74624;SDS011;63131;52.298;8.056;2023-10-19T14:40:04;18.17;;;9.60;;
74624;SDS011;63131;52.298;8.056;2023-10-19T14:42:34;17.73;;;10.38;;
74624;SDS011;63131;52.298;8.056;2023-10-19T14:47:24;14.20;;;8.90;;
74624;SDS011;63131;52.298;8.056;2023-10-19T14:52:14;15.38;;;9.20;;
74624;SDS011;63131;52.298;8.056;2023-10-19T14:57:05;16.27;;;8.75;;
74624;SDS011;63131;52.298;8.056;2023-10-19T15:01:58;15.52;;;10.65;;
74624;SDS011;63131;52.298;8.056;2023-10-19T15:06:49;14.52;;;8.82;;
74624;SDS011;63131;52.298;8.056;2023-10-19T15:11:45;14.82;;;9.02;;
74624;SDS011;63131;52.298;8.056;2023-10-19T15:16:36;14.52;;;8.95;;
74624;SDS011;63131;52.298;8.056;2023-10-19T15:21:28;15.57;;;7.88;;
74624;SDS011;63131;52.298;8.056;2023-10-19T15:26:19;16.38;;;8.82;;
74624;SDS011;63131;52.298;8.056;2023-10-19T15:28:44;16.33;;;9.07;;
74624;SDS011;63131;52.298;8.056;2023-10-19T15:31:10;15.02;;;9.82;;
74624;SDS011;63131;52.298;8.056;2023-10-19T15:36:00;16.53;;;8.50;;
74624;SDS011;63131;52.298;8.056;2023-10-19T15:40:50;17.83;;;10.45;;
74624;SDS011;63131;52.298;8.056;2023-10-19T15:45:41;15.27;;;9.38;;
74624;SDS011;63131;52.298;8.056;2023-10-19T15:48:09;16.60;;;10.20;;
74624;SDS011;63131;52.298;8.056;2023-10-19T15:50:35;16.45;;;9.98;;
74624;SDS011;63131;52.298;8.056;2023-10-19T15:55:27;18.75;;;10.10;;
74624;SDS011;63131;52.298;8.056;2023-10-19T15:57:54;18.40;;;10.40;;
74624;SDS011;63131;52.298;8.056;2023-10-19T16:00:20;15.63;;;9.60;;
74624;SDS011;63131;52.298;8.056;2023-10-19T16:05:10;16.42;;;9.77;;
74624;SDS011;63131;52.298;8.056;2023-10-19T16:07:36;17.08;;;9.80;;
74624;SDS011;63131;52.298;8.056;2023-10-19T16:12:27;19.17;;;10.48;;
74624;SDS011;63131;52.298;8.056;2023-10-19T16:17:17;15.13;;;9.60;;
74624;SDS011;63131;52.298;8.056;2023-10-19T16:19:43;17.52;;;11.23;;
74624;SDS011;63131;52.298;8.056;2023-10-19T16:24:34;17.08;;;10.68;;
74624;SDS011;63131;52.298;8.056;2023-10-19T16:29:24;18.65;;;10.20;;
74624;SDS011;63131;52.298;8.056;2023-10-19T16:31:51;18.33;;;10.63;;
74624;SDS011;63131;52.298;8.056;2023-10-19T16:34:18;17.77;;;11.60;;
74624;SDS011;63131;52.298;8.056;2023-10-19T16:39:09;17.43;;;11.23;;
74624;SDS011;63131;52.298;8.056;2023-10-19T16:41:35;17.05;;;11.18;;
74624;SDS011;63131;52.298;8.056;2023-10-19T16:44:02;17.67;;;10.57;;
74624;SDS011;63131;52.298;8.056;2023-10-19T16:46:30;20.13;;;11.63;;
74624;SDS011;63131;52.298;8.056;2023-10-19T16:48:56;20.92;;;11.70;;
74624;SDS011;63131;52.298;8.056;2023-10-19T16:53:47;19.33;;;11.23;;
74624;SDS011;63131;52.298;8.056;2023-10-19T16:56:13;20.88;;;11.85;;
74624;SDS011;63131;52.298;8.056;2023-10-19T17:01:07;18.95;;;11.07;;
74624;SDS011;63131;52.298;8.056;2023-10-19T17:03:35;16.42;;;11.13;;
74624;SDS011;63131;52.298;8.056;2023-10-19T17:06:00;21.40;;;11.57;;
74624;SDS011;63131;52.298;8.056;2023-10-19T17:08:26;19.63;;;11.93;;
74624;SDS011;63131;52.298;8.056;2023-10-19T17:13:17;17.90;;;11.52;;
74624;SDS011;63131;52.298;8.056;2023-10-19T17:15:43;20.73;;;11.00;;
74624;SDS011;63131;52.298;8.056;2023-10-19T17:18:08;21.83;;;12.47;;